Time;durP1;ratioP1;P1;durP2;ratioP2;P2;SDS_P1;SDS_P2;PMS_P1;PMS_P2;Temp;Humidity;BMP_temperature;BMP_pressure;BME280_temperature;BME280_humidity;BME280_pressure;Samples;Min_cycle;Max_cycle;Signal;HPM_P1;HPM_P2
2023/03/15 00:01:53;;;;;;;6.22;1.38;;;2.80;99.90;;;;;;5101638;27;20034;-69
2023/03/15 00:04:20;;;;;;;5.82;1.35;;;2.80;99.90;;;;;;5102824;27;20117;-69
2023/03/15 00:06:45;;;;;;;5.80;1.60;;;2.80;99.90;;;;;;5103877;27;20496;-70
2023/03/15 00:09:11;;;;;;;10.70;1.75;;;2.80;99.90;;;;;;5094025;27;20530;-70
2023/03/15 00:11:36;;;;;;;11.25;2.10;;;2.90;99.90;;;;;;5101709;27;20584;-70
2023/03/15 00:14:02;;;;;;;6.05;1.70;;;2.90;99.90;;;;;;5097262;27;20122;-69
2023/03/15 00:16:28;;;;;;;6.65;1.98;;;3.00;99.90;;;;;;5104218;27;20058;-70
2023/03/15 00:18:54;;;;;;;5.72;1.70;;;3.00;99.90;;;;;;5103813;27;20130;-68
2023/03/15 00:21:20;;;;;;;4.68;1.63;;;3.00;99.90;;;;;;5101181;27;20396;-68
2023/03/15 00:23:45;;;;;;;6.18;1.63;;;2.90;99.90;;;;;;5101739;27;20031;-69
2023/03/15 00:26:11;;;;;;;7.25;1.60;;;2.90;99.90;;;;;;5106795;27;20049;-69
2023/03/15 00:28:37;;;;;;;9.68;2.03;;;2.80;99.90;;;;;;5106055;27;20401;-70
2023/03/15 00:31:20;;;;;;;4.05;1.38;;;2.90;99.90;;;;;;5105329;27;20040;-69
2023/03/15 00:33:47;;;;;;;6.10;1.60;;;3.00;99.90;;;;;;5100692;27;20397;-69
2023/03/15 00:36:13;;;;;;;5.18;1.08;;;3.00;99.90;;;;;;5104850;27;20534;-70
2023/03/15 00:38:42;;;;;;;6.50;1.30;;;3.00;99.90;;;;;;5101679;27;20397;-72
2023/03/15 00:41:14;;;;;;;6.55;1.38;;;3.00;99.90;;;;;;5099566;27;20035;-70
2023/03/15 00:43:40;;;;;;;7.57;1.23;;;3.00;99.90;;;;;;5084936;27;20028;-70
2023/03/15 00:46:06;;;;;;;4.75;1.45;;;3.00;99.90;;;;;;5104181;27;20477;-71
2023/03/15 00:48:34;;;;;;;5.32;1.33;;;2.90;99.90;;;;;;5104007;27;20039;-72
2023/03/15 00:51:07;;;;;;;6.25;1.20;;;2.90;99.90;;;;;;5102264;27;20130;-70
2023/03/15 00:53:33;;;;;;;5.50;1.20;;;2.90;99.90;;;;;;5086006;27;20046;-69
2023/03/15 00:56:06;;;;;;;9.05;1.40;;;2.80;99.90;;;;;;5098620;27;20043;-70
2023/03/15 00:58:32;;;;;;;3.92;1.20;;;2.90;99.90;;;;;;5097325;27;20406;-70
2023/03/15 01:00:58;;;;;;;8.35;1.00;;;2.90;99.90;;;;;;5082265;27;20319;-70
2023/03/15 01:03:24;;;;;;;6.63;1.08;;;2.90;99.90;;;;;;5101842;27;20023;-69
2023/03/15 01:05:49;;;;;;;6.03;1.48;;;2.90;99.90;;;;;;5103346;27;20035;-71
2023/03/15 01:08:15;;;;;;;7.85;1.30;;;2.90;99.90;;;;;;5111526;27;20035;-69
2023/03/15 01:10:40;;;;;;;8.27;1.40;;;2.80;99.90;;;;;;5083695;27;20039;-69
2023/03/15 01:13:06;;;;;;;6.65;1.02;;;2.70;99.90;;;;;;5098982;27;20047;-70
2023/03/15 01:15:32;;;;;;;6.60;1.15;;;2.70;99.90;;;;;;5083318;27;20039;-70
2023/03/15 01:17:57;;;;;;;4.90;0.95;;;2.60;99.90;;;;;;5081982;27;20050;-70
2023/03/15 01:20:23;;;;;;;9.73;1.55;;;2.60;99.90;;;;;;5097910;27;20188;-69
2023/03/15 01:22:49;;;;;;;8.45;1.27;;;2.50;99.90;;;;;;5100319;27;20040;-70
2023/03/15 01:25:14;;;;;;;3.95;1.02;;;2.50;99.90;;;;;;5103520;27;20478;-69
2023/03/15 01:27:40;;;;;;;4.18;0.93;;;2.40;99.90;;;;;;5086999;27;20058;-70
2023/03/15 01:30:05;;;;;;;5.10;0.90;;;2.40;99.90;;;;;;5086635;27;20055;-69
2023/03/15 01:32:31;;;;;;;5.07;1.10;;;2.40;99.90;;;;;;5087634;27;20032;-70
2023/03/15 01:34:57;;;;;;;3.97;1.15;;;2.40;99.90;;;;;;5103455;27;20038;-70
2023/03/15 01:37:23;;;;;;;8.43;1.25;;;2.30;99.90;;;;;;5096224;27;20043;-69
2023/03/15 01:39:49;;;;;;;6.22;1.02;;;2.30;99.90;;;;;;5103865;27;20035;-69
2023/03/15 01:42:15;;;;;;;6.90;1.00;;;2.20;99.90;;;;;;5101615;27;20035;-69
2023/03/15 01:44:47;;;;;;;8.40;1.45;;;2.20;99.90;;;;;;5102641;27;20035;-69
2023/03/15 01:47:12;;;;;;;5.40;1.15;;;2.20;99.90;;;;;;5101475;27;20067;-68
2023/03/15 01:49:38;;;;;;;7.75;1.23;;;2.20;99.90;;;;;;5083744;27;20180;-69
2023/03/15 01:52:08;;;;;;;4.93;0.98;;;2.20;99.90;;;;;;5101942;27;20130;-69
2023/03/15 01:54:56;;;;;;;5.35;1.40;;;2.10;99.90;;;;;;5104398;27;20187;-69
2023/03/15 01:57:35;;;;;;;9.05;1.42;;;2.00;99.90;;;;;;5098806;27;20431;-69
2023/03/15 02:00:10;;;;;;;9.98;1.15;;;2.00;99.90;;;;;;5100841;27;20096;-69
2023/03/15 02:02:40;;;;;;;6.78;1.70;;;2.00;99.90;;;;;;5102043;27;20046;-69
2023/03/15 02:05:10;;;;;;;6.72;1.13;;;1.90;99.90;;;;;;5100785;27;20035;-69
2023/03/15 02:07:37;;;;;;;3.45;1.10;;;1.90;99.90;;;;;;5100771;27;20027;-69
2023/03/15 02:10:13;;;;;;;12.55;1.48;;;1.90;99.90;;;;;;5086583;27;20047;-69
2023/03/15 02:12:44;;;;;;;6.72;1.17;;;1.80;99.90;;;;;;5100552;27;20043;-69
2023/03/15 02:15:11;;;;;;;11.98;1.48;;;1.80;99.90;;;;;;5080350;27;20418;-69
2023/03/15 02:17:42;;;;;;;7.43;1.30;;;1.80;99.90;;;;;;5097152;27;20043;-69
2023/03/15 02:20:17;;;;;;;3.15;0.80;;;1.70;99.90;;;;;;5097949;27;20550;-69
2023/03/15 02:23:08;;;;;;;5.65;1.17;;;1.70;99.90;;;;;;5099586;27;20097;-70
2023/03/15 02:25:47;;;;;;;6.53;0.95;;;1.60;99.90;;;;;;5101624;27;20031;-70
2023/03/15 02:28:14;;;;;;;3.33;0.73;;;1.60;99.90;;;;;;5102591;27;20070;-69
2023/03/15 02:30:41;;;;;;;2.50;0.70;;;1.60;99.90;;;;;;5087058;27;20043;-68
2023/03/15 02:33:16;;;;;;;4.88;0.70;;;1.60;99.90;;;;;;5100641;27;20043;-67
2023/03/15 02:35:41;;;;;;;10.63;1.63;;;1.70;99.90;;;;;;5104482;27;20042;-70
2023/03/15 02:38:10;;;;;;;4.82;0.90;;;1.70;99.90;;;;;;5096669;27;20039;-69
2023/03/15 02:40:37;;;;;;;19.23;0.95;;;1.70;99.90;;;;;;5101856;27;20035;-70
2023/03/15 02:43:09;;;;;;;3.88;0.77;;;1.80;99.90;;;;;;5102915;27;20042;-67
2023/03/15 02:45:36;;;;;;;;;;;1.90;99.90;;;;;;5102509;27;20057;-70
2023/03/15 02:48:05;;;;;;;5.50;1.17;;;1.90;99.90;;;;;;5100975;27;19919;-71
2023/03/15 02:50:31;;;;;;;9.73;1.17;;;1.80;99.90;;;;;;5101119;27;20050;-72
2023/03/15 02:52:56;;;;;;;7.70;1.00;;;1.80;99.90;;;;;;5084512;27;20026;-69
2023/03/15 02:55:22;;;;;;;9.27;1.02;;;1.70;99.90;;;;;;5086569;27;20039;-68
2023/03/15 02:57:48;;;;;;;10.02;1.48;;;1.70;99.90;;;;;;5092585;27;20054;-69
2023/03/15 03:00:14;;;;;;;15.45;1.50;;;1.50;99.90;;;;;;5097086;27;20554;-68
2023/03/15 03:02:45;;;;;;;10.25;1.20;;;1.40;99.90;;;;;;5098533;27;20092;-69
2023/03/15 03:05:13;;;;;;;7.05;1.30;;;1.30;99.90;;;;;;5100518;27;20046;-69
2023/03/15 03:07:38;;;;;;;8.98;1.30;;;1.30;99.90;;;;;;5098411;27;20115;-69
2023/03/15 03:10:05;;;;;;;6.07;1.10;;;1.20;99.90;;;;;;5100015;27;20035;-69
2023/03/15 03:12:31;;;;;;;11.27;1.40;;;1.10;99.90;;;;;;5099725;27;20031;-69
2023/03/15 03:14:57;;;;;;;7.00;1.40;;;1.10;99.90;;;;;;5102124;27;20045;-69
2023/03/15 03:17:23;;;;;;;7.05;1.13;;;1.10;99.90;;;;;;5098877;27;20043;-69
2023/03/15 03:19:50;;;;;;;12.05;1.23;;;1.00;99.90;;;;;;5093219;27;20066;-69
2023/03/15 03:22:16;;;;;;;7.97;1.35;;;1.00;99.90;;;;;;5100650;27;20027;-69
2023/03/15 03:24:44;;;;;;;4.88;1.02;;;1.00;99.90;;;;;;5099397;27;20075;-69
2023/03/15 03:27:13;;;;;;;4.53;0.88;;;0.90;99.90;;;;;;5081996;28;20039;-69
2023/03/15 03:29:40;;;;;;;3.75;0.90;;;0.90;99.90;;;;;;5096416;27;20489;-68
2023/03/15 03:32:07;;;;;;;3.40;0.85;;;0.90;99.90;;;;;;5100784;27;20031;-69
2023/03/15 03:34:33;;;;;;;4.68;1.00;;;0.80;99.90;;;;;;5101094;27;20142;-69
2023/03/15 03:36:58;;;;;;;5.50;1.15;;;0.70;99.90;;;;;;5096256;27;20478;-69
2023/03/15 03:39:24;;;;;;;6.60;1.00;;;0.70;99.90;;;;;;5080156;27;20043;-69
2023/03/15 03:41:49;;;;;;;6.07;1.30;;;0.70;99.90;;;;;;5101322;28;20501;-68
2023/03/15 03:44:15;;;;;;;7.15;0.90;;;0.70;99.90;;;;;;5097453;28;20035;-69
2023/03/15 03:46:41;;;;;;;7.97;1.08;;;0.70;99.90;;;;;;5102713;28;20070;-68
2023/03/15 03:49:07;;;;;;;6.65;0.98;;;0.60;99.90;;;;;;5098898;28;20046;-68
2023/03/15 03:51:36;;;;;;;5.38;1.05;;;0.60;99.90;;;;;;5110625;27;20042;-68
2023/03/15 03:54:02;;;;;;;3.95;1.15;;;0.50;99.90;;;;;;5102269;27;20546;-68
2023/03/15 03:56:28;;;;;;;4.97;1.23;;;0.60;99.90;;;;;;5102696;28;20039;-68
2023/03/15 03:58:53;;;;;;;6.28;1.38;;;0.60;99.90;;;;;;5101037;27;20055;-68
2023/03/15 04:01:20;;;;;;;8.00;1.52;;;0.50;99.90;;;;;;5099978;28;20397;-69
2023/03/15 04:03:46;;;;;;;9.32;1.20;;;0.40;99.90;;;;;;5103381;27;20039;-68
2023/03/15 04:06:12;;;;;;;7.50;1.23;;;0.50;99.90;;;;;;5097071;27;20046;-69
2023/03/15 04:08:39;;;;;;;8.07;1.20;;;0.40;99.90;;;;;;5101395;28;20057;-68
2023/03/15 04:11:05;;;;;;;4.28;1.00;;;0.40;99.90;;;;;;5085666;27;20042;-69
2023/03/15 04:13:31;;;;;;;10.98;1.23;;;0.40;99.90;;;;;;5084973;27;20050;-68
2023/03/15 04:15:57;;;;;;;11.52;1.20;;;0.40;99.90;;;;;;5097265;27;20039;-68
2023/03/15 04:18:23;;;;;;;6.03;1.10;;;0.40;99.90;;;;;;5101851;28;20047;-68
2023/03/15 04:20:53;;;;;;;7.78;1.30;;;0.30;99.90;;;;;;5101677;27;20092;-69
2023/03/15 04:23:20;;;;;;;9.45;1.73;;;0.50;99.90;;;;;;5099371;27;20069;-69
2023/03/15 04:25:49;;;;;;;7.82;1.55;;;0.60;99.90;;;;;;5101978;28;20482;-68
2023/03/15 04:28:16;;;;;;;7.28;1.60;;;0.50;99.90;;;;;;5101626;28;20031;-69
2023/03/15 04:30:42;;;;;;;4.82;1.20;;;0.50;99.90;;;;;;5095811;28;20040;-68
2023/03/15 04:33:09;;;;;;;10.35;1.48;;;0.50;99.90;;;;;;5101018;28;20043;-68
2023/03/15 04:35:37;;;;;;;5.13;1.20;;;0.60;99.90;;;;;;5101915;28;20043;-68
2023/03/15 04:38:03;;;;;;;9.00;1.58;;;0.60;99.90;;;;;;5101288;28;20054;-68
2023/03/15 04:40:33;;;;;;;14.98;1.25;;;0.70;99.90;;;;;;5101403;28;20402;-69
2023/03/15 04:43:00;;;;;;;6.25;1.10;;;0.80;99.90;;;;;;5104147;27;20039;-69
2023/03/15 04:45:27;;;;;;;8.98;1.40;;;0.90;99.90;;;;;;5107636;27;20039;-68
2023/03/15 04:47:54;;;;;;;8.43;1.25;;;0.90;99.90;;;;;;5105832;27;20055;-68
2023/03/15 04:50:21;;;;;;;11.18;1.70;;;1.00;99.90;;;;;;5104095;27;20419;-68
2023/03/15 04:52:47;;;;;;;6.82;1.77;;;0.80;99.90;;;;;;5104977;27;20074;-68
2023/03/15 04:55:13;;;;;;;10.75;1.73;;;0.90;99.90;;;;;;5102795;27;20040;-69
2023/03/15 04:57:39;;;;;;;7.88;1.30;;;0.80;99.90;;;;;;5085320;27;20042;-68
2023/03/15 05:00:07;;;;;;;10.52;1.67;;;0.80;99.90;;;;;;5103832;27;20050;-68
2023/03/15 05:02:33;;;;;;;6.05;1.58;;;0.70;99.90;;;;;;5088103;27;20063;-68
2023/03/15 05:04:58;;;;;;;10.15;1.73;;;0.70;99.90;;;;;;5103179;27;20418;-68
2023/03/15 05:07:24;;;;;;;6.63;1.45;;;0.70;99.90;;;;;;5100173;27;20032;-68
2023/03/15 05:09:50;;;;;;;9.65;1.90;;;0.80;99.90;;;;;;5104949;27;20039;-69
2023/03/15 05:12:15;;;;;;;9.73;1.50;;;0.70;99.90;;;;;;5104549;27;20088;-69
2023/03/15 05:14:41;;;;;;;6.15;1.17;;;0.70;99.90;;;;;;5106730;27;20043;-68
2023/03/15 05:17:07;;;;;;;8.50;1.70;;;0.70;99.90;;;;;;5099556;27;20038;-68
2023/03/15 05:19:35;;;;;;;8.52;1.27;;;0.80;99.90;;;;;;5106353;27;20039;-68
2023/03/15 05:22:02;;;;;;;8.15;1.45;;;0.80;99.90;;;;;;5086666;27;20120;-69
2023/03/15 05:24:28;;;;;;;6.93;1.38;;;0.90;99.90;;;;;;5105918;27;20050;-69
2023/03/15 05:26:53;;;;;;;9.55;1.90;;;0.90;99.90;;;;;;5104497;27;20035;-69
2023/03/15 05:29:20;;;;;;;10.15;1.23;;;0.90;99.90;;;;;;5106754;27;20523;-70
2023/03/15 05:31:46;;;;;;;7.47;1.23;;;1.00;99.90;;;;;;5105597;27;20266;-68
2023/03/15 05:34:12;;;;;;;7.78;1.40;;;1.00;99.90;;;;;;5088981;27;20171;-68
2023/03/15 05:36:38;;;;;;;8.43;1.30;;;1.10;99.90;;;;;;5103015;27;20133;-69
2023/03/15 05:39:04;;;;;;;9.70;1.65;;;1.20;99.90;;;;;;5105280;27;20039;-68
2023/03/15 05:41:30;;;;;;;7.18;1.20;;;1.20;99.90;;;;;;5091702;27;20482;-68
2023/03/15 05:43:56;;;;;;;5.88;1.13;;;1.20;99.90;;;;;;5103769;27;20039;-68
2023/03/15 05:46:22;;;;;;;4.10;1.08;;;1.20;99.90;;;;;;5104840;27;20211;-69
2023/03/15 05:48:48;;;;;;;9.27;1.05;;;1.20;99.90;;;;;;5104583;27;20043;-69
2023/03/15 05:51:14;;;;;;;4.40;1.00;;;1.20;99.90;;;;;;5088767;27;20035;-69
2023/03/15 05:53:40;;;;;;;4.45;0.90;;;1.10;99.90;;;;;;5102520;27;20087;-69
2023/03/15 05:56:06;;;;;;;5.30;1.02;;;1.10;99.90;;;;;;5105363;27;20155;-69
2023/03/15 05:58:31;;;;;;;6.53;1.00;;;1.10;99.90;;;;;;5101961;27;20027;-69
2023/03/15 06:00:57;;;;;;;7.35;1.33;;;1.00;99.90;;;;;;5089142;27;20046;-69
2023/03/15 06:03:22;;;;;;;6.68;0.73;;;1.00;99.90;;;;;;5102421;27;20035;-69
2023/03/15 06:05:48;;;;;;;6.32;1.02;;;1.10;99.90;;;;;;5100072;27;20039;-69
2023/03/15 06:08:13;;;;;;;10.27;1.50;;;1.00;99.90;;;;;;5102022;27;20051;-69
2023/03/15 06:10:39;;;;;;;3.38;1.00;;;1.00;99.90;;;;;;5103798;27;20046;-68
2023/03/15 06:13:05;;;;;;;3.80;1.00;;;1.10;99.90;;;;;;5098089;27;20439;-68
2023/03/15 06:15:30;;;;;;;5.85;0.98;;;1.00;99.90;;;;;;5095932;27;20083;-69
2023/03/15 06:17:56;;;;;;;8.02;1.10;;;1.00;99.90;;;;;;5099762;27;20058;-69
2023/03/15 06:20:21;;;;;;;5.88;1.20;;;1.00;99.90;;;;;;5100905;27;20055;-69
2023/03/15 06:22:47;;;;;;;6.50;1.00;;;1.00;99.90;;;;;;5098861;27;20358;-69
2023/03/15 06:25:13;;;;;;;8.70;1.25;;;1.00;99.90;;;;;;5084815;27;20474;-69
2023/03/15 06:27:38;;;;;;;8.48;1.35;;;1.00;99.90;;;;;;5099821;27;20137;-68
2023/03/15 06:30:05;;;;;;;5.57;0.80;;;1.00;99.90;;;;;;5104174;27;20501;-68
2023/03/15 06:32:30;;;;;;;6.40;1.20;;;0.90;99.90;;;;;;5085941;27;20045;-69
2023/03/15 06:34:56;;;;;;;5.22;0.90;;;0.90;99.90;;;;;;5101488;27;20047;-69
2023/03/15 06:37:21;;;;;;;5.72;1.10;;;0.90;99.90;;;;;;5099243;27;20039;-69
2023/03/15 06:39:47;;;;;;;6.47;0.95;;;0.90;99.90;;;;;;5102026;27;20385;-69
2023/03/15 06:42:13;;;;;;;10.65;1.50;;;1.00;99.90;;;;;;5104954;27;20035;-69
2023/03/15 06:44:40;;;;;;;6.78;1.15;;;0.90;99.90;;;;;;5109579;27;20035;-69
2023/03/15 06:47:06;;;;;;;5.07;1.02;;;0.90;99.90;;;;;;5097121;27;20350;-69
2023/03/15 06:49:32;;;;;;;4.90;1.13;;;1.00;99.90;;;;;;5104279;27;20108;-69
2023/03/15 06:51:57;;;;;;;7.20;1.20;;;1.00;99.90;;;;;;5099455;27;20481;-69
2023/03/15 06:54:23;;;;;;;6.82;1.15;;;0.90;99.90;;;;;;5100942;27;20108;-70
2023/03/15 06:56:49;;;;;;;6.93;1.20;;;1.00;99.90;;;;;;5095390;27;20119;-69
2023/03/15 06:59:15;;;;;;;7.80;1.20;;;1.10;99.90;;;;;;5099333;27;20494;-69
2023/03/15 07:01:41;;;;;;;7.35;1.20;;;1.10;99.90;;;;;;5105792;27;20031;-69
2023/03/15 07:04:08;;;;;;;7.43;1.58;;;1.20;99.90;;;;;;5104424;27;20491;-69
2023/03/15 07:06:33;;;;;;;6.43;1.30;;;1.10;99.90;;;;;;5111227;27;20670;-70
2023/03/15 07:08:59;;;;;;;6.50;1.20;;;1.20;99.90;;;;;;5102473;27;20059;-70
2023/03/15 07:11:25;;;;;;;10.52;1.80;;;1.30;99.90;;;;;;5107169;27;20050;-70
2023/03/15 07:13:50;;;;;;;8.13;1.20;;;1.40;99.90;;;;;;5098925;27;20035;-69
2023/03/15 07:16:16;;;;;;;5.60;1.02;;;1.40;99.90;;;;;;5103258;27;20035;-69
2023/03/15 07:18:41;;;;;;;6.93;1.05;;;1.40;99.90;;;;;;5104025;28;20035;-69
2023/03/15 07:21:07;;;;;;;8.38;1.10;;;1.60;99.90;;;;;;5105236;28;20294;-68
2023/03/15 07:23:33;;;;;;;5.38;1.10;;;1.70;99.90;;;;;;5105875;27;20043;-71
2023/03/15 07:25:59;;;;;;;5.28;0.90;;;1.70;99.90;;;;;;5102490;27;20055;-70
2023/03/15 07:28:26;;;;;;;6.85;1.23;;;1.80;99.90;;;;;;5109322;28;20043;-71
2023/03/15 07:30:57;;;;;;;3.40;0.80;;;1.90;99.90;;;;;;5109650;28;20057;-70
2023/03/15 07:33:24;;;;;;;6.53;1.10;;;2.00;99.90;;;;;;5108996;28;20440;-71
2023/03/15 07:35:52;;;;;;;3.17;0.93;;;2.00;99.90;;;;;;5105641;28;20042;-71
2023/03/15 07:38:18;;;;;;;8.20;0.95;;;2.20;99.90;;;;;;5089185;27;20618;-71
2023/03/15 07:40:44;;;;;;;6.63;1.25;;;2.30;99.90;;;;;;5101789;27;20047;-71
2023/03/15 07:43:09;;;;;;;6.00;1.05;;;2.40;99.90;;;;;;5106271;28;20501;-69
2023/03/15 07:45:35;;;;;;;8.98;1.00;;;2.50;99.90;;;;;;5104684;28;20068;-70
2023/03/15 07:48:00;;;;;;;5.13;1.02;;;2.60;99.90;;;;;;5104760;28;20035;-68
2023/03/15 07:50:26;;;;;;;10.10;1.15;;;2.70;99.90;;;;;;5109910;28;20512;-69
2023/03/15 07:52:52;;;;;;;5.15;1.40;;;2.90;99.90;;;;;;5107841;28;20038;-70
2023/03/15 07:55:17;;;;;;;3.35;0.90;;;3.00;99.90;;;;;;5089661;28;20126;-69
2023/03/15 07:57:43;;;;;;;3.83;1.08;;;3.10;99.90;;;;;;5099640;28;20497;-70
2023/03/15 08:00:11;;;;;;;4.32;0.98;;;3.20;99.90;;;;;;5110618;28;20031;-72
2023/03/15 08:02:36;;;;;;;7.57;1.10;;;3.30;99.90;;;;;;5100997;28;20062;-71
2023/03/15 08:05:03;;;;;;;7.50;1.05;;;3.40;99.90;;;;;;5092862;28;20039;-71
2023/03/15 08:07:29;;;;;;;4.75;0.95;;;3.60;99.90;;;;;;5094950;28;20042;-70
2023/03/15 08:09:56;;;;;;;8.80;1.10;;;3.60;99.90;;;;;;5110031;28;20050;-73
2023/03/15 08:12:23;;;;;;;6.97;1.00;;;3.80;99.90;;;;;;5108314;27;20457;-70
2023/03/15 08:14:50;;;;;;;8.35;1.15;;;3.90;99.90;;;;;;5104492;27;20057;-72
2023/03/15 08:17:16;;;;;;;7.05;1.10;;;4.00;99.90;;;;;;5106614;27;20114;-69
2023/03/15 08:19:43;;;;;;;7.50;1.17;;;4.10;99.90;;;;;;5094933;28;20505;-70
2023/03/15 08:22:09;;;;;;;9.88;1.88;;;4.20;99.90;;;;;;5103149;27;20397;-70
2023/03/15 08:24:34;;;;;;;7.60;1.60;;;4.30;99.90;;;;;;5114410;27;20071;-72
2023/03/15 08:27:00;;;;;;;8.77;1.48;;;4.40;99.90;;;;;;5116666;27;20517;-71
2023/03/15 08:29:26;;;;;;;7.22;1.52;;;4.50;99.90;;;;;;5093574;27;20069;-70
2023/03/15 08:31:52;;;;;;;5.55;0.85;;;4.60;99.90;;;;;;5113070;27;20311;-71
2023/03/15 08:34:18;;;;;;;11.52;1.70;;;4.70;99.90;;;;;;5109423;27;20038;-72
2023/03/15 08:36:46;;;;;;;4.35;1.13;;;4.70;99.90;;;;;;5112822;27;20475;-72
2023/03/15 08:39:11;;;;;;;6.68;1.25;;;4.70;99.90;;;;;;5098646;27;20039;-72
2023/03/15 08:41:37;;;;;;;9.18;1.50;;;4.70;99.90;;;;;;5115806;27;20040;-71
2023/03/15 08:44:03;;;;;;;7.57;1.42;;;4.70;99.90;;;;;;5095156;27;20039;-72
2023/03/15 08:46:29;;;;;;;6.55;0.80;;;4.80;99.90;;;;;;5095861;27;20076;-70
2023/03/15 08:48:54;;;;;;;1.35;0.45;;;4.80;99.90;;;;;;5107597;27;20042;-71
2023/03/15 08:51:20;;;;;;;3.30;0.60;;;4.70;99.90;;;;;;5110112;27;20398;-70
2023/03/15 08:53:46;;;;;;;6.32;1.08;;;4.70;99.90;;;;;;5111447;27;20460;-70
2023/03/15 08:56:12;;;;;;;5.60;0.90;;;4.60;99.90;;;;;;5098984;28;20096;-70
2023/03/15 08:58:38;;;;;;;6.50;1.15;;;4.60;99.90;;;;;;5097952;27;20462;-71
2023/03/15 09:01:03;;;;;;;4.47;1.00;;;4.60;99.90;;;;;;5094302;27;20058;-71
2023/03/15 09:03:31;;;;;;;4.38;0.98;;;4.60;99.90;;;;;;5089618;27;20833;-71
2023/03/15 09:05:58;;;;;;;6.22;0.90;;;4.60;99.90;;;;;;5105869;27;20251;-69
2023/03/15 09:08:25;;;;;;;8.88;1.05;;;4.70;99.90;;;;;;5101289;27;20046;-70
2023/03/15 09:10:57;;;;;;;3.53;0.90;;;4.70;99.90;;;;;;5099432;27;20409;-71
2023/03/15 09:13:23;;;;;;;;;;;4.80;99.90;;;;;;5104969;27;20049;-68
2023/03/15 09:15:52;;;;;;;7.15;1.67;;;4.90;99.90;;;;;;5110159;27;20327;-69
2023/03/15 09:18:18;;;;;;;10.48;1.20;;;5.00;99.90;;;;;;5103410;27;20498;-69
2023/03/15 09:20:44;;;;;;;6.38;1.17;;;5.20;99.90;;;;;;5112214;27;20042;-69
2023/03/15 09:23:10;;;;;;;3.30;0.90;;;5.20;99.90;;;;;;5113665;27;20106;-70
2023/03/15 09:25:38;;;;;;;6.25;1.15;;;5.30;99.90;;;;;;5108858;27;20517;-71
2023/03/15 09:28:05;;;;;;;8.50;1.25;;;5.40;99.90;;;;;;5096174;27;20121;-70
2023/03/15 09:30:31;;;;;;;8.27;1.48;;;5.40;99.90;;;;;;5095313;27;20046;-70
2023/03/15 09:32:56;;;;;;;8.02;1.20;;;5.50;99.90;;;;;;5081609;27;20047;-71
2023/03/15 09:35:22;;;;;;;5.78;0.95;;;5.60;99.90;;;;;;5104535;27;20518;-69
2023/03/15 09:37:49;;;;;;;7.25;2.00;;;5.70;99.90;;;;;;5097321;27;20482;-69
2023/03/15 09:40:39;;;;;;;6.28;1.67;;;5.80;99.90;;;;;;5112285;27;20035;-71
2023/03/15 09:43:05;;;;;;;10.38;2.03;;;5.90;99.90;;;;;;5090105;27;20050;-69
2023/03/15 09:45:53;;;;;;;8.25;1.48;;;5.90;99.90;;;;;;5096019;27;20040;-71
2023/03/15 09:48:24;;;;;;;8.20;1.52;;;6.00;99.90;;;;;;5088503;27;20059;-72
2023/03/15 09:50:52;;;;;;;7.65;1.25;;;6.00;99.90;;;;;;5109268;27;20043;-71
2023/03/15 09:53:27;;;;;;;9.35;1.42;;;6.10;99.90;;;;;;5101922;27;20055;-72
2023/03/15 09:55:53;;;;;;;5.45;1.20;;;6.00;99.90;;;;;;5106036;27;20284;-71
2023/03/15 09:58:31;;;;;;;5.40;1.08;;;6.20;99.90;;;;;;5100468;27;20436;-70
2023/03/15 10:01:16;;;;;;;9.15;1.45;;;6.10;99.90;;;;;;5087614;27;20043;-71
2023/03/15 10:03:51;;;;;;;8.95;1.33;;;6.30;99.90;;;;;;5091124;27;20038;-70
2023/03/15 10:06:25;;;;;;;11.77;1.20;;;6.50;99.90;;;;;;5103696;27;20360;-70
2023/03/15 10:08:57;;;;;;;8.50;1.20;;;6.60;99.90;;;;;;5102185;27;20726;-71
2023/03/15 10:11:38;;;;;;;7.40;1.20;;;6.40;99.90;;;;;;5108708;27;20485;-70
2023/03/15 10:14:25;;;;;;;6.13;1.20;;;6.20;99.90;;;;;;5104666;27;20296;-70
2023/03/15 10:16:51;;;;;;;5.15;1.10;;;6.40;99.90;;;;;;5103071;27;20534;-70
2023/03/15 10:19:44;;;;;;;9.05;1.30;;;6.60;99.90;;;;;;5089610;27;20050;-71
2023/03/15 10:22:29;;;;;;;7.47;1.30;;;6.80;99.90;;;;;;5105429;27;20050;-70
2023/03/15 10:25:18;;;;;;;7.28;1.13;;;6.80;99.90;;;;;;5087400;28;20478;-70
2023/03/15 10:28:06;;;;;;;7.22;1.20;;;6.80;99.90;;;;;;5100496;27;20091;-72
2023/03/15 10:30:34;;;;;;;6.72;1.20;;;6.80;99.90;;;;;;5109108;27;20039;-72
2023/03/15 10:33:04;;;;;;;5.28;1.13;;;6.80;99.90;;;;;;5107528;27;20397;-72
2023/03/15 10:35:30;;;;;;;10.30;1.73;;;6.70;99.90;;;;;;5108429;27;20552;-72
2023/03/15 10:37:57;;;;;;;7.32;1.40;;;6.80;99.90;;;;;;5107768;27;20094;-71
2023/03/15 10:40:38;;;;;;;9.93;1.77;;;6.80;99.90;;;;;;5101485;27;20062;-69
2023/03/15 10:43:12;;;;;;;7.13;1.50;;;7.10;99.90;;;;;;5105560;27;20039;-71
2023/03/15 10:45:38;;;;;;;10.40;1.60;;;7.30;99.90;;;;;;5103150;27;20360;-71
2023/03/15 10:48:04;;;;;;;9.52;1.80;;;7.20;99.90;;;;;;5101613;27;20035;-70
2023/03/15 10:50:32;;;;;;;6.63;1.48;;;7.10;99.90;;;;;;5103976;27;20038;-71
2023/03/15 10:53:01;;;;;;;7.70;1.83;;;7.30;99.90;;;;;;5105381;27;20036;-71
2023/03/15 10:55:38;;;;;;;8.98;1.90;;;7.40;99.90;;;;;;5111641;27;20122;-70
2023/03/15 10:58:26;;;;;;;8.63;2.00;;;7.40;99.90;;;;;;5110706;27;20048;-72
2023/03/15 11:01:06;;;;;;;10.15;1.58;;;7.50;99.90;;;;;;5096362;27;20110;-71
2023/03/15 11:03:33;;;;;;;7.30;1.45;;;7.50;99.90;;;;;;5092366;27;20447;-73
2023/03/15 11:05:59;;;;;;;9.27;1.90;;;7.70;99.90;;;;;;5108811;27;20053;-71
2023/03/15 11:08:40;;;;;;;8.68;1.65;;;7.60;99.90;;;;;;5111345;27;20078;-72
2023/03/15 11:11:07;;;;;;;7.03;1.48;;;7.60;99.90;;;;;;5108453;27;20382;-69
2023/03/15 11:13:35;;;;;;;7.70;1.35;;;7.70;99.90;;;;;;5092619;28;20070;-72
2023/03/15 11:16:05;;;;;;;5.88;1.50;;;7.50;99.90;;;;;;5105937;27;20119;-73
2023/03/15 11:18:45;;;;;;;5.00;1.52;;;7.30;99.90;;;;;;5099805;28;20043;-68
2023/03/15 11:21:16;;;;;;;8.25;1.70;;;7.00;99.90;;;;;;5105606;27;20485;-68
2023/03/15 11:23:47;;;;;;;7.00;1.60;;;6.90;99.90;;;;;;5109189;27;20039;-68
2023/03/15 11:26:17;;;;;;;5.10;1.33;;;7.10;99.90;;;;;;5110386;27;20497;-69
2023/03/15 11:28:51;;;;;;;7.97;1.60;;;7.30;99.90;;;;;;5092822;28;20050;-69
2023/03/15 11:31:20;;;;;;;8.18;1.52;;;7.50;99.90;;;;;;5093577;27;20044;-68
2023/03/15 11:34:11;;;;;;;4.13;1.05;;;7.60;99.90;;;;;;5119972;28;20046;-68
2023/03/15 11:36:41;;;;;;;11.18;1.88;;;7.90;99.90;;;;;;5106884;27;20047;-69
2023/03/15 11:39:13;;;;;;;6.68;1.40;;;8.10;99.90;;;;;;5111691;28;20497;-68
2023/03/15 11:41:53;;;;;;;5.80;1.48;;;8.10;99.90;;;;;;5110488;28;20058;-65
2023/03/15 11:44:44;;;;;;;6.78;1.15;;;8.10;99.90;;;;;;5092821;28;20427;-65
2023/03/15 11:47:19;;;;;;;6.65;1.00;;;8.10;99.90;;;;;;5106340;28;20042;-65
2023/03/15 11:49:55;;;;;;;5.93;1.23;;;8.00;99.90;;;;;;5092292;28;20125;-65
2023/03/15 11:52:24;;;;;;;7.07;1.20;;;7.80;99.90;;;;;;5105373;27;20123;-65
2023/03/15 11:54:53;;;;;;;8.95;1.27;;;7.60;99.90;;;;;;5116774;27;20102;-63
2023/03/15 11:57:28;;;;;;;8.15;1.25;;;7.60;99.90;;;;;;5095317;27;20043;-64
2023/03/15 11:59:55;;;;;;;6.60;1.40;;;7.50;99.90;;;;;;5095189;27;20044;-66
2023/03/15 12:02:25;;;;;;;3.60;1.00;;;7.50;99.90;;;;;;5109531;27;20046;-65
2023/03/15 12:04:54;;;;;;;7.88;1.00;;;7.30;99.90;;;;;;5107452;27;20066;-66
2023/03/15 12:07:22;;;;;;;5.47;1.42;;;7.10;99.90;;;;;;5108057;27;20049;-65
2023/03/15 12:10:19;;;;;;;6.40;1.67;;;6.90;99.90;;;;;;5114799;27;20039;-65
2023/03/15 12:12:46;;;;;;;4.20;1.23;;;7.00;99.90;;;;;;5090480;27;20055;-66
2023/03/15 12:15:38;;;;;;;5.20;1.10;;;7.20;99.90;;;;;;5115141;27;20064;-65
2023/03/15 12:18:07;;;;;;;7.25;1.67;;;7.30;99.90;;;;;;5103199;27;20042;-67
2023/03/15 12:20:39;;;;;;;7.10;1.48;;;7.50;99.90;;;;;;5109986;27;20039;-65
2023/03/15 12:23:17;;;;;;;8.23;1.48;;;7.50;99.90;;;;;;5108660;27;20088;-65
2023/03/15 12:25:48;;;;;;;6.50;1.70;;;7.60;99.90;;;;;;5109920;27;20035;-66
2023/03/15 12:28:35;;;;;;;3.97;1.20;;;7.70;99.90;;;;;;5104064;28;20089;-65
2023/03/15 12:31:07;;;;;;;8.18;1.55;;;7.70;99.90;;;;;;5097135;27;20047;-66
2023/03/15 12:33:44;;;;;;;7.17;1.53;;;7.80;99.90;;;;;;5103562;27;20071;-65
2023/03/15 12:36:31;;;;;;;12.02;1.75;;;7.90;99.90;;;;;;5108196;27;20066;-65
2023/03/15 12:39:15;;;;;;;7.35;1.13;;;7.90;99.90;;;;;;5108907;27;20058;-65
2023/03/15 12:41:43;;;;;;;5.05;1.30;;;7.90;99.90;;;;;;5111006;27;20084;-65
2023/03/15 12:44:30;;;;;;;9.00;1.25;;;7.90;99.90;;;;;;5114547;27;20466;-65
2023/03/15 12:47:04;;;;;;;7.30;1.48;;;8.00;99.90;;;;;;5108292;27;20406;-67
2023/03/15 12:49:37;;;;;;;8.63;1.63;;;8.10;99.90;;;;;;5108725;27;20042;-67
2023/03/15 12:52:14;;;;;;;5.93;1.20;;;8.10;99.90;;;;;;5107451;27;20117;-65
2023/03/15 12:54:48;;;;;;;11.23;1.77;;;8.00;99.90;;;;;;5111596;27;20346;-66
2023/03/15 12:57:27;;;;;;;6.13;1.35;;;8.10;99.90;;;;;;5110952;27;20062;-66
2023/03/15 13:00:10;;;;;;;6.70;1.42;;;8.10;99.90;;;;;;5109804;27;20035;-66
2023/03/15 13:02:43;;;;;;;4.10;1.23;;;8.10;99.90;;;;;;5104730;27;20469;-65
2023/03/15 13:05:09;;;;;;;5.70;1.70;;;8.30;99.90;;;;;;5114410;27;20047;-65